sensor_id;sensor_type;location;lat;lon;timestamp;P1;durP1;ratioP1;P2;durP2;ratioP2
22652;SDS011;11493;43.344;26.226;2023-09-18T00:01:22;6.07;;;4.47;;
22652;SDS011;11493;43.344;26.226;2023-09-18T00:03:49;7.90;;;4.65;;
22652;SDS011;11493;43.344;26.226;2023-09-18T00:06:16;7.65;;;5.25;;
22652;SDS011;11493;43.344;26.226;2023-09-18T00:08:43;5.55;;;4.22;;
22652;SDS011;11493;43.344;26.226;2023-09-18T00:11:10;5.97;;;4.90;;
22652;SDS011;11493;43.344;26.226;2023-09-18T00:13:38;6.13;;;4.70;;
22652;SDS011;11493;43.344;26.226;2023-09-18T00:16:05;4.82;;;4.20;;
22652;SDS011;11493;43.344;26.226;2023-09-18T00:18:32;11.75;;;4.68;;
22652;SDS011;11493;43.344;26.226;2023-09-18T00:20:59;7.95;;;4.72;;
22652;SDS011;11493;43.344;26.226;2023-09-18T00:23:27;5.20;;;4.68;;
22652;SDS011;11493;43.344;26.226;2023-09-18T00:25:54;6.57;;;5.10;;
22652;SDS011;11493;43.344;26.226;2023-09-18T00:28:21;8.70;;;5.00;;
22652;SDS011;11493;43.344;26.226;2023-09-18T00:30:48;6.93;;;4.80;;
22652;SDS011;11493;43.344;26.226;2023-09-18T00:33:16;5.93;;;4.75;;
22652;SDS011;11493;43.344;26.226;2023-09-18T00:35:49;5.85;;;4.82;;
22652;SDS011;11493;43.344;26.226;2023-09-18T00:38:17;8.20;;;4.78;;
22652;SDS011;11493;43.344;26.226;2023-09-18T00:40:46;8.95;;;5.22;;
22652;SDS011;11493;43.344;26.226;2023-09-18T00:43:14;6.60;;;4.53;;
22652;SDS011;11493;43.344;26.226;2023-09-18T00:45:45;6.50;;;4.65;;
22652;SDS011;11493;43.344;26.226;2023-09-18T00:48:14;8.02;;;5.13;;
22652;SDS011;11493;43.344;26.226;2023-09-18T00:50:46;5.47;;;4.70;;
22652;SDS011;11493;43.344;26.226;2023-09-18T00:53:20;6.15;;;4.70;;
22652;SDS011;11493;43.344;26.226;2023-09-18T00:55:53;5.40;;;4.90;;
22652;SDS011;11493;43.344;26.226;2023-09-18T00:58:24;10.63;;;5.18;;
22652;SDS011;11493;43.344;26.226;2023-09-18T01:00:52;5.30;;;3.95;;
22652;SDS011;11493;43.344;26.226;2023-09-18T01:03:19;9.05;;;4.75;;
22652;SDS011;11493;43.344;26.226;2023-09-18T01:05:48;7.72;;;4.82;;
22652;SDS011;11493;43.344;26.226;2023-09-18T01:08:15;6.68;;;4.85;;
22652;SDS011;11493;43.344;26.226;2023-09-18T01:10:46;9.05;;;5.15;;
22652;SDS011;11493;43.344;26.226;2023-09-18T01:13:21;8.98;;;4.03;;
22652;SDS011;11493;43.344;26.226;2023-09-18T01:15:56;6.70;;;5.03;;
22652;SDS011;11493;43.344;26.226;2023-09-18T01:18:27;6.93;;;4.75;;
22652;SDS011;11493;43.344;26.226;2023-09-18T01:20:54;5.53;;;4.80;;
22652;SDS011;11493;43.344;26.226;2023-09-18T01:23:21;9.02;;;5.10;;
22652;SDS011;11493;43.344;26.226;2023-09-18T01:25:48;7.07;;;4.75;;
22652;SDS011;11493;43.344;26.226;2023-09-18T01:28:16;5.30;;;4.60;;
22652;SDS011;11493;43.344;26.226;2023-09-18T01:30:43;10.88;;;5.40;;
22652;SDS011;11493;43.344;26.226;2023-09-18T01:33:11;6.68;;;4.97;;
22652;SDS011;11493;43.344;26.226;2023-09-18T01:35:39;4.65;;;4.22;;
22652;SDS011;11493;43.344;26.226;2023-09-18T01:38:08;5.05;;;4.55;;
22652;SDS011;11493;43.344;26.226;2023-09-18T01:40:37;7.57;;;4.43;;
22652;SDS011;11493;43.344;26.226;2023-09-18T01:43:05;6.85;;;4.55;;
22652;SDS011;11493;43.344;26.226;2023-09-18T01:45:33;7.63;;;5.00;;
22652;SDS011;11493;43.344;26.226;2023-09-18T01:48:03;5.20;;;4.63;;
22652;SDS011;11493;43.344;26.226;2023-09-18T01:52:59;7.50;;;4.88;;
22652;SDS011;11493;43.344;26.226;2023-09-18T01:55:26;6.35;;;5.30;;
22652;SDS011;11493;43.344;26.226;2023-09-18T01:57:55;5.20;;;4.80;;
22652;SDS011;11493;43.344;26.226;2023-09-18T02:00:23;13.27;;;4.78;;
22652;SDS011;11493;43.344;26.226;2023-09-18T02:02:52;10.85;;;4.63;;
22652;SDS011;11493;43.344;26.226;2023-09-18T02:05:39;13.30;;;5.95;;
22652;SDS011;11493;43.344;26.226;2023-09-18T02:08:08;11.30;;;4.82;;
22652;SDS011;11493;43.344;26.226;2023-09-18T02:10:35;7.47;;;4.72;;
22652;SDS011;11493;43.344;26.226;2023-09-18T02:13:02;7.18;;;4.70;;
22652;SDS011;11493;43.344;26.226;2023-09-18T02:15:31;9.07;;;4.80;;
22652;SDS011;11493;43.344;26.226;2023-09-18T02:17:59;6.80;;;5.60;;
22652;SDS011;11493;43.344;26.226;2023-09-18T02:20:26;7.93;;;5.15;;
22652;SDS011;11493;43.344;26.226;2023-09-18T02:22:53;7.65;;;5.70;;
22652;SDS011;11493;43.344;26.226;2023-09-18T02:25:20;9.63;;;5.35;;
22652;SDS011;11493;43.344;26.226;2023-09-18T02:27:48;6.65;;;4.72;;
22652;SDS011;11493;43.344;26.226;2023-09-18T02:30:16;5.28;;;4.78;;
22652;SDS011;11493;43.344;26.226;2023-09-18T02:32:45;6.43;;;4.82;;
22652;SDS011;11493;43.344;26.226;2023-09-18T02:35:13;6.65;;;4.32;;
22652;SDS011;11493;43.344;26.226;2023-09-18T02:37:40;10.00;;;4.82;;
22652;SDS011;11493;43.344;26.226;2023-09-18T02:40:16;7.90;;;4.57;;
22652;SDS011;11493;43.344;26.226;2023-09-18T02:42:43;9.77;;;4.32;;
22652;SDS011;11493;43.344;26.226;2023-09-18T02:45:11;8.85;;;4.43;;
22652;SDS011;11493;43.344;26.226;2023-09-18T02:47:38;5.88;;;4.43;;
22652;SDS011;11493;43.344;26.226;2023-09-18T02:50:08;8.55;;;4.65;;
22652;SDS011;11493;43.344;26.226;2023-09-18T02:52:38;5.90;;;4.53;;
22652;SDS011;11493;43.344;26.226;2023-09-18T02:55:05;7.22;;;4.20;;
22652;SDS011;11493;43.344;26.226;2023-09-18T02:57:33;10.80;;;4.90;;
22652;SDS011;11493;43.344;26.226;2023-09-18T03:00:00;6.35;;;4.35;;
22652;SDS011;11493;43.344;26.226;2023-09-18T03:02:28;8.82;;;4.18;;
22652;SDS011;11493;43.344;26.226;2023-09-18T03:04:56;5.70;;;4.22;;
22652;SDS011;11493;43.344;26.226;2023-09-18T03:07:23;4.88;;;4.30;;
22652;SDS011;11493;43.344;26.226;2023-09-18T03:09:50;5.95;;;4.82;;
22652;SDS011;11493;43.344;26.226;2023-09-18T03:12:18;9.20;;;5.57;;
22652;SDS011;11493;43.344;26.226;2023-09-18T03:14:45;6.60;;;5.07;;
22652;SDS011;11493;43.344;26.226;2023-09-18T03:17:13;5.15;;;4.65;;
22652;SDS011;11493;43.344;26.226;2023-09-18T03:19:41;10.10;;;5.53;;
22652;SDS011;11493;43.344;26.226;2023-09-18T03:22:10;9.68;;;5.20;;
22652;SDS011;11493;43.344;26.226;2023-09-18T03:24:37;8.10;;;5.22;;
22652;SDS011;11493;43.344;26.226;2023-09-18T03:27:04;8.93;;;5.60;;
22652;SDS011;11493;43.344;26.226;2023-09-18T03:29:31;8.32;;;5.25;;
22652;SDS011;11493;43.344;26.226;2023-09-18T03:31:59;5.82;;;5.20;;
22652;SDS011;11493;43.344;26.226;2023-09-18T03:34:26;6.28;;;4.80;;
22652;SDS011;11493;43.344;26.226;2023-09-18T03:36:53;7.72;;;5.05;;
22652;SDS011;11493;43.344;26.226;2023-09-18T03:39:21;11.93;;;6.55;;
22652;SDS011;11493;43.344;26.226;2023-09-18T03:41:48;7.20;;;5.05;;
22652;SDS011;11493;43.344;26.226;2023-09-18T03:44:15;8.02;;;5.93;;
22652;SDS011;11493;43.344;26.226;2023-09-18T03:46:43;13.00;;;6.07;;
22652;SDS011;11493;43.344;26.226;2023-09-18T03:49:10;9.75;;;5.78;;
22652;SDS011;11493;43.344;26.226;2023-09-18T03:51:39;13.23;;;6.20;;
22652;SDS011;11493;43.344;26.226;2023-09-18T03:54:06;11.80;;;6.25;;
22652;SDS011;11493;43.344;26.226;2023-09-18T03:56:33;8.32;;;5.13;;
22652;SDS011;11493;43.344;26.226;2023-09-18T03:59:00;10.15;;;5.63;;
22652;SDS011;11493;43.344;26.226;2023-09-18T04:01:28;11.32;;;5.90;;
22652;SDS011;11493;43.344;26.226;2023-09-18T04:03:55;7.68;;;5.35;;
22652;SDS011;11493;43.344;26.226;2023-09-18T04:06:22;5.88;;;5.38;;
22652;SDS011;11493;43.344;26.226;2023-09-18T04:08:51;17.30;;;5.88;;
22652;SDS011;11493;43.344;26.226;2023-09-18T04:11:18;7.90;;;5.43;;
22652;SDS011;11493;43.344;26.226;2023-09-18T04:13:52;8.50;;;5.30;;
22652;SDS011;11493;43.344;26.226;2023-09-18T04:16:19;12.77;;;5.53;;
22652;SDS011;11493;43.344;26.226;2023-09-18T04:18:46;5.82;;;5.32;;
22652;SDS011;11493;43.344;26.226;2023-09-18T04:21:13;7.80;;;5.72;;
22652;SDS011;11493;43.344;26.226;2023-09-18T04:23:40;9.30;;;5.50;;
22652;SDS011;11493;43.344;26.226;2023-09-18T04:26:08;13.55;;;5.57;;
22652;SDS011;11493;43.344;26.226;2023-09-18T04:28:35;7.55;;;5.43;;
22652;SDS011;11493;43.344;26.226;2023-09-18T04:31:05;14.70;;;5.80;;
22652;SDS011;11493;43.344;26.226;2023-09-18T04:33:33;13.57;;;5.45;;
22652;SDS011;11493;43.344;26.226;2023-09-18T04:36:01;8.70;;;6.20;;
22652;SDS011;11493;43.344;26.226;2023-09-18T04:38:31;6.72;;;5.55;;
22652;SDS011;11493;43.344;26.226;2023-09-18T04:40:59;10.60;;;6.10;;
22652;SDS011;11493;43.344;26.226;2023-09-18T04:43:27;12.65;;;5.93;;
22652;SDS011;11493;43.344;26.226;2023-09-18T04:45:57;8.20;;;5.47;;
22652;SDS011;11493;43.344;26.226;2023-09-18T04:48:24;14.57;;;6.15;;
22652;SDS011;11493;43.344;26.226;2023-09-18T04:50:52;8.75;;;6.10;;
22652;SDS011;11493;43.344;26.226;2023-09-18T04:53:19;17.60;;;6.63;;
22652;SDS011;11493;43.344;26.226;2023-09-18T04:55:46;13.65;;;7.07;;
22652;SDS011;11493;43.344;26.226;2023-09-18T04:58:17;10.40;;;6.53;;
22652;SDS011;11493;43.344;26.226;2023-09-18T05:00:44;9.10;;;5.70;;
22652;SDS011;11493;43.344;26.226;2023-09-18T05:03:13;9.75;;;6.75;;
22652;SDS011;11493;43.344;26.226;2023-09-18T05:05:41;11.02;;;6.65;;
22652;SDS011;11493;43.344;26.226;2023-09-18T05:08:08;11.23;;;6.75;;
22652;SDS011;11493;43.344;26.226;2023-09-18T05:10:36;8.00;;;6.50;;
22652;SDS011;11493;43.344;26.226;2023-09-18T05:13:03;7.82;;;6.60;;
22652;SDS011;11493;43.344;26.226;2023-09-18T05:15:31;9.20;;;7.13;;
22652;SDS011;11493;43.344;26.226;2023-09-18T05:17:59;12.68;;;7.18;;
22652;SDS011;11493;43.344;26.226;2023-09-18T05:20:28;9.48;;;7.18;;
22652;SDS011;11493;43.344;26.226;2023-09-18T05:22:56;7.45;;;6.75;;
22652;SDS011;11493;43.344;26.226;2023-09-18T05:25:25;13.07;;;7.72;;
22652;SDS011;11493;43.344;26.226;2023-09-18T05:27:53;19.48;;;6.95;;
22652;SDS011;11493;43.344;26.226;2023-09-18T05:30:27;9.65;;;6.90;;
22652;SDS011;11493;43.344;26.226;2023-09-18T05:32:58;8.60;;;7.80;;
22652;SDS011;11493;43.344;26.226;2023-09-18T05:35:35;12.07;;;7.35;;
22652;SDS011;11493;43.344;26.226;2023-09-18T05:38:07;11.27;;;7.10;;
22652;SDS011;11493;43.344;26.226;2023-09-18T05:40:37;11.85;;;7.78;;
22652;SDS011;11493;43.344;26.226;2023-09-18T05:43:05;9.38;;;7.57;;
22652;SDS011;11493;43.344;26.226;2023-09-18T05:45:32;14.30;;;7.60;;
22652;SDS011;11493;43.344;26.226;2023-09-18T05:48:00;12.18;;;8.10;;
22652;SDS011;11493;43.344;26.226;2023-09-18T05:50:31;14.73;;;8.60;;
22652;SDS011;11493;43.344;26.226;2023-09-18T05:53:00;12.07;;;7.78;;
22652;SDS011;11493;43.344;26.226;2023-09-18T05:55:31;10.65;;;8.43;;
22652;SDS011;11493;43.344;26.226;2023-09-18T05:57:59;17.30;;;8.70;;
22652;SDS011;11493;43.344;26.226;2023-09-18T06:00:30;15.20;;;8.83;;
22652;SDS011;11493;43.344;26.226;2023-09-18T06:02:58;10.85;;;8.38;;
22652;SDS011;11493;43.344;26.226;2023-09-18T06:05:26;18.48;;;8.95;;
22652;SDS011;11493;43.344;26.226;2023-09-18T06:07:53;10.85;;;8.45;;
22652;SDS011;11493;43.344;26.226;2023-09-18T06:10:21;10.80;;;8.23;;
22652;SDS011;11493;43.344;26.226;2023-09-18T06:12:48;9.32;;;7.70;;
22652;SDS011;11493;43.344;26.226;2023-09-18T06:15:15;13.52;;;8.10;;
22652;SDS011;11493;43.344;26.226;2023-09-18T06:17:43;13.32;;;8.55;;
22652;SDS011;11493;43.344;26.226;2023-09-18T06:20:11;13.23;;;8.23;;
22652;SDS011;11493;43.344;26.226;2023-09-18T06:22:42;7.55;;;6.10;;
22652;SDS011;11493;43.344;26.226;2023-09-18T06:25:10;9.70;;;6.40;;
22652;SDS011;11493;43.344;26.226;2023-09-18T06:27:37;7.30;;;6.22;;
22652;SDS011;11493;43.344;26.226;2023-09-18T06:30:05;15.50;;;6.70;;
22652;SDS011;11493;43.344;26.226;2023-09-18T06:32:32;13.77;;;7.20;;
22652;SDS011;11493;43.344;26.226;2023-09-18T06:35:00;9.98;;;7.30;;
22652;SDS011;11493;43.344;26.226;2023-09-18T06:37:28;10.52;;;6.55;;
22652;SDS011;11493;43.344;26.226;2023-09-18T06:39:55;9.02;;;7.78;;
22652;SDS011;11493;43.344;26.226;2023-09-18T06:42:25;7.18;;;6.47;;
22652;SDS011;11493;43.344;26.226;2023-09-18T06:44:56;6.93;;;6.32;;
22652;SDS011;11493;43.344;26.226;2023-09-18T06:47:23;13.02;;;11.55;;
22652;SDS011;11493;43.344;26.226;2023-09-18T06:49:54;14.80;;;13.53;;
22652;SDS011;11493;43.344;26.226;2023-09-18T06:52:21;17.83;;;10.20;;
22652;SDS011;11493;43.344;26.226;2023-09-18T06:54:48;13.15;;;9.38;;
22652;SDS011;11493;43.344;26.226;2023-09-18T06:57:15;18.08;;;10.90;;
22652;SDS011;11493;43.344;26.226;2023-09-18T06:59:42;13.25;;;9.55;;
22652;SDS011;11493;43.344;26.226;2023-09-18T07:02:10;11.52;;;8.20;;
22652;SDS011;11493;43.344;26.226;2023-09-18T07:04:37;7.68;;;6.78;;
22652;SDS011;11493;43.344;26.226;2023-09-18T07:07:12;14.57;;;6.85;;
22652;SDS011;11493;43.344;26.226;2023-09-18T07:09:43;10.35;;;7.15;;
22652;SDS011;11493;43.344;26.226;2023-09-18T07:12:29;11.43;;;6.82;;
22652;SDS011;11493;43.344;26.226;2023-09-18T07:14:59;11.73;;;6.00;;
22652;SDS011;11493;43.344;26.226;2023-09-18T07:17:30;7.22;;;5.60;;
22652;SDS011;11493;43.344;26.226;2023-09-18T07:19:57;25.65;;;7.18;;
22652;SDS011;11493;43.344;26.226;2023-09-18T07:22:26;5.85;;;4.75;;
22652;SDS011;11493;43.344;26.226;2023-09-18T07:24:56;7.25;;;3.97;;
22652;SDS011;11493;43.344;26.226;2023-09-18T07:27:23;12.77;;;4.78;;
22652;SDS011;11493;43.344;26.226;2023-09-18T07:29:51;64.75;;;7.82;;
22652;SDS011;11493;43.344;26.226;2023-09-18T07:32:18;9.88;;;4.63;;
22652;SDS011;11493;43.344;26.226;2023-09-18T07:35:03;5.32;;;4.63;;
22652;SDS011;11493;43.344;26.226;2023-09-18T07:37:34;7.78;;;4.10;;
22652;SDS011;11493;43.344;26.226;2023-09-18T07:40:03;6.80;;;4.80;;
22652;SDS011;11493;43.344;26.226;2023-09-18T07:42:34;6.28;;;4.15;;
22652;SDS011;11493;43.344;26.226;2023-09-18T07:45:01;5.25;;;4.18;;
22652;SDS011;11493;43.344;26.226;2023-09-18T07:47:29;4.82;;;4.40;;
22652;SDS011;11493;43.344;26.226;2023-09-18T07:49:58;10.27;;;4.72;;
22652;SDS011;11493;43.344;26.226;2023-09-18T07:52:26;7.65;;;4.25;;
22652;SDS011;11493;43.344;26.226;2023-09-18T07:54:54;5.72;;;4.28;;
22652;SDS011;11493;43.344;26.226;2023-09-18T07:57:21;5.40;;;4.68;;
22652;SDS011;11493;43.344;26.226;2023-09-18T07:59:49;7.00;;;4.55;;
22652;SDS011;11493;43.344;26.226;2023-09-18T08:02:17;8.43;;;4.03;;
22652;SDS011;11493;43.344;26.226;2023-09-18T08:04:45;5.38;;;4.25;;
22652;SDS011;11493;43.344;26.226;2023-09-18T08:07:13;5.25;;;4.40;;
22652;SDS011;11493;43.344;26.226;2023-09-18T08:09:40;5.40;;;3.45;;
22652;SDS011;11493;43.344;26.226;2023-09-18T08:12:07;6.28;;;3.55;;
22652;SDS011;11493;43.344;26.226;2023-09-18T08:14:37;9.45;;;3.88;;
22652;SDS011;11493;43.344;26.226;2023-09-18T08:17:05;4.97;;;3.55;;
22652;SDS011;11493;43.344;26.226;2023-09-18T08:19:36;5.88;;;4.18;;
22652;SDS011;11493;43.344;26.226;2023-09-18T08:22:03;5.78;;;4.18;;
22652;SDS011;11493;43.344;26.226;2023-09-18T08:24:31;8.55;;;3.78;;
22652;SDS011;11493;43.344;26.226;2023-09-18T08:26:58;4.53;;;4.13;;
22652;SDS011;11493;43.344;26.226;2023-09-18T08:29:25;4.53;;;3.75;;
22652;SDS011;11493;43.344;26.226;2023-09-18T08:31:53;5.00;;;3.85;;
22652;SDS011;11493;43.344;26.226;2023-09-18T08:34:20;7.43;;;4.72;;
22652;SDS011;11493;43.344;26.226;2023-09-18T08:36:49;10.27;;;3.83;;
22652;SDS011;11493;43.344;26.226;2023-09-18T08:39:17;8.68;;;4.60;;
22652;SDS011;11493;43.344;26.226;2023-09-18T08:41:44;6.82;;;4.47;;
22652;SDS011;11493;43.344;26.226;2023-09-18T08:44:15;8.02;;;4.05;;
22652;SDS011;11493;43.344;26.226;2023-09-18T08:46:42;5.80;;;3.55;;
22652;SDS011;11493;43.344;26.226;2023-09-18T08:49:10;4.93;;;3.95;;
22652;SDS011;11493;43.344;26.226;2023-09-18T08:51:37;4.97;;;3.75;;
22652;SDS011;11493;43.344;26.226;2023-09-18T08:54:05;4.93;;;3.92;;
22652;SDS011;11493;43.344;26.226;2023-09-18T08:56:33;10.23;;;4.43;;
22652;SDS011;11493;43.344;26.226;2023-09-18T08:59:01;4.30;;;3.72;;
22652;SDS011;11493;43.344;26.226;2023-09-18T09:01:28;10.00;;;4.38;;
22652;SDS011;11493;43.344;26.226;2023-09-18T09:03:55;7.57;;;4.32;;
22652;SDS011;11493;43.344;26.226;2023-09-18T09:06:22;5.80;;;3.83;;
22652;SDS011;11493;43.344;26.226;2023-09-18T09:08:50;6.70;;;3.83;;
22652;SDS011;11493;43.344;26.226;2023-09-18T09:11:18;6.50;;;4.07;;
22652;SDS011;11493;43.344;26.226;2023-09-18T09:13:46;4.15;;;3.80;;
22652;SDS011;11493;43.344;26.226;2023-09-18T09:16:13;10.73;;;4.28;;
22652;SDS011;11493;43.344;26.226;2023-09-18T09:18:48;5.10;;;4.03;;
22652;SDS011;11493;43.344;26.226;2023-09-18T09:21:17;8.98;;;3.88;;
22652;SDS011;11493;43.344;26.226;2023-09-18T09:23:46;6.82;;;4.50;;
22652;SDS011;11493;43.344;26.226;2023-09-18T09:26:20;13.38;;;7.97;;
22652;SDS011;11493;43.344;26.226;2023-09-18T09:28:50;5.37;;;4.87;;
22652;SDS011;11493;43.344;26.226;2023-09-18T09:31:25;5.93;;;4.15;;
22652;SDS011;11493;43.344;26.226;2023-09-18T09:33:54;6.45;;;3.72;;
22652;SDS011;11493;43.344;26.226;2023-09-18T09:36:26;11.02;;;4.32;;
22652;SDS011;11493;43.344;26.226;2023-09-18T09:38:56;12.15;;;4.80;;
22652;SDS011;11493;43.344;26.226;2023-09-18T09:41:26;9.73;;;3.60;;
22652;SDS011;11493;43.344;26.226;2023-09-18T09:43:57;10.57;;;3.83;;
22652;SDS011;11493;43.344;26.226;2023-09-18T09:46:25;6.50;;;3.80;;
22652;SDS011;11493;43.344;26.226;2023-09-18T09:48:57;4.35;;;3.83;;
22652;SDS011;11493;43.344;26.226;2023-09-18T09:51:28;6.30;;;3.58;;
22652;SDS011;11493;43.344;26.226;2023-09-18T09:53:56;4.63;;;3.78;;
22652;SDS011;11493;43.344;26.226;2023-09-18T09:56:45;7.45;;;3.90;;
22652;SDS011;11493;43.344;26.226;2023-09-18T09:59:18;7.68;;;3.97;;
22652;SDS011;11493;43.344;26.226;2023-09-18T10:01:46;5.07;;;4.68;;
22652;SDS011;11493;43.344;26.226;2023-09-18T10:04:18;6.95;;;3.65;;
22652;SDS011;11493;43.344;26.226;2023-09-18T10:06:55;5.05;;;4.50;;
22652;SDS011;11493;43.344;26.226;2023-09-18T10:09:26;12.98;;;3.38;;
22652;SDS011;11493;43.344;26.226;2023-09-18T10:11:56;3.78;;;3.47;;
22652;SDS011;11493;43.344;26.226;2023-09-18T10:14:29;4.07;;;3.75;;
22652;SDS011;11493;43.344;26.226;2023-09-18T10:17:22;7.45;;;3.90;;
22652;SDS011;11493;43.344;26.226;2023-09-18T10:20:23;7.15;;;3.67;;
22652;SDS011;11493;43.344;26.226;2023-09-18T10:22:48;7.72;;;3.45;;
22652;SDS011;11493;43.344;26.226;2023-09-18T10:25:29;5.95;;;3.28;;
22652;SDS011;11493;43.344;26.226;2023-09-18T10:27:58;8.27;;;3.65;;
22652;SDS011;11493;43.344;26.226;2023-09-18T10:30:32;5.18;;;3.22;;
22652;SDS011;11493;43.344;26.226;2023-09-18T10:33:01;7.05;;;3.75;;
22652;SDS011;11493;43.344;26.226;2023-09-18T10:35:28;3.95;;;3.47;;
22652;SDS011;11493;43.344;26.226;2023-09-18T10:37:56;5.32;;;3.67;;
22652;SDS011;11493;43.344;26.226;2023-09-18T10:40:25;9.13;;;3.17;;
22652;SDS011;11493;43.344;26.226;2023-09-18T10:42:57;8.82;;;3.80;;
22652;SDS011;11493;43.344;26.226;2023-09-18T10:45:26;6.43;;;3.33;;
22652;SDS011;11493;43.344;26.226;2023-09-18T10:47:54;8.40;;;3.33;;
22652;SDS011;11493;43.344;26.226;2023-09-18T10:50:23;3.28;;;2.97;;
22652;SDS011;11493;43.344;26.226;2023-09-18T10:52:52;6.75;;;3.55;;
22652;SDS011;11493;43.344;26.226;2023-09-18T10:55:20;4.30;;;2.72;;
22652;SDS011;11493;43.344;26.226;2023-09-18T10:57:51;7.10;;;3.00;;
22652;SDS011;11493;43.344;26.226;2023-09-18T11:00:27;5.78;;;2.50;;
22652;SDS011;11493;43.344;26.226;2023-09-18T11:05:41;2.97;;;2.58;;
22652;SDS011;11493;43.344;26.226;2023-09-18T11:08:24;4.72;;;2.38;;
22652;SDS011;11493;43.344;26.226;2023-09-18T11:11:02;6.05;;;2.63;;
22652;SDS011;11493;43.344;26.226;2023-09-18T11:16:13;3.65;;;2.78;;
22652;SDS011;11493;43.344;26.226;2023-09-18T11:21:29;3.53;;;2.60;;
22652;SDS011;11493;43.344;26.226;2023-09-18T11:24:01;4.72;;;2.47;;
22652;SDS011;11493;43.344;26.226;2023-09-18T11:26:33;4.13;;;2.40;;
22652;SDS011;11493;43.344;26.226;2023-09-18T11:29:03;7.05;;;2.88;;
22652;SDS011;11493;43.344;26.226;2023-09-18T11:31:45;6.43;;;2.70;;
22652;SDS011;11493;43.344;26.226;2023-09-18T11:34:21;7.65;;;2.70;;
22652;SDS011;11493;43.344;26.226;2023-09-18T11:36:50;2.67;;;2.47;;
22652;SDS011;11493;43.344;26.226;2023-09-18T11:39:34;4.00;;;3.08;;
22652;SDS011;11493;43.344;26.226;2023-09-18T11:42:12;5.53;;;3.08;;
22652;SDS011;11493;43.344;26.226;2023-09-18T11:44:40;6.30;;;2.83;;
22652;SDS011;11493;43.344;26.226;2023-09-18T11:47:09;3.55;;;2.80;;
22652;SDS011;11493;43.344;26.226;2023-09-18T11:49:47;6.13;;;2.17;;
22652;SDS011;11493;43.344;26.226;2023-09-18T11:54:45;2.47;;;2.20;;
22652;SDS011;11493;43.344;26.226;2023-09-18T11:57:14;2.80;;;2.55;;
22652;SDS011;11493;43.344;26.226;2023-09-18T11:59:41;5.85;;;2.60;;
22652;SDS011;11493;43.344;26.226;2023-09-18T12:02:27;3.00;;;2.70;;
22652;SDS011;11493;43.344;26.226;2023-09-18T12:05:15;5.40;;;2.75;;
22652;SDS011;11493;43.344;26.226;2023-09-18T12:07:44;4.20;;;3.00;;
22652;SDS011;11493;43.344;26.226;2023-09-18T12:10:17;5.82;;;2.80;;
22652;SDS011;11493;43.344;26.226;2023-09-18T12:12:47;3.55;;;3.10;;
22652;SDS011;11493;43.344;26.226;2023-09-18T12:15:16;5.03;;;2.50;;
22652;SDS011;11493;43.344;26.226;2023-09-18T12:17:45;3.67;;;2.40;;
22652;SDS011;11493;43.344;26.226;2023-09-18T12:20:16;2.35;;;2.15;;
22652;SDS011;11493;43.344;26.226;2023-09-18T12:22:50;2.85;;;2.40;;
22652;SDS011;11493;43.344;26.226;2023-09-18T12:25:18;4.80;;;2.63;;
22652;SDS011;11493;43.344;26.226;2023-09-18T12:27:45;3.60;;;2.38;;
22652;SDS011;11493;43.344;26.226;2023-09-18T12:30:17;3.72;;;2.90;;
22652;SDS011;11493;43.344;26.226;2023-09-18T12:32:47;2.97;;;2.20;;
22652;SDS011;11493;43.344;26.226;2023-09-18T12:35:15;4.45;;;3.05;;
22652;SDS011;11493;43.344;26.226;2023-09-18T12:37:45;8.68;;;2.75;;
22652;SDS011;11493;43.344;26.226;2023-09-18T12:40:26;3.90;;;2.42;;
22652;SDS011;11493;43.344;26.226;2023-09-18T12:42:57;3.67;;;2.40;;
22652;SDS011;11493;43.344;26.226;2023-09-18T12:45:26;7.38;;;2.78;;
22652;SDS011;11493;43.344;26.226;2023-09-18T12:47:57;7.90;;;2.58;;
22652;SDS011;11493;43.344;26.226;2023-09-18T12:50:25;5.90;;;1.90;;
22652;SDS011;11493;43.344;26.226;2023-09-18T12:52:53;3.08;;;2.00;;
22652;SDS011;11493;43.344;26.226;2023-09-18T12:55:24;4.18;;;2.25;;
22652;SDS011;11493;43.344;26.226;2023-09-18T12:57:52;4.75;;;2.47;;
22652;SDS011;11493;43.344;26.226;2023-09-18T13:00:20;2.58;;;2.30;;
22652;SDS011;11493;43.344;26.226;2023-09-18T13:02:53;5.03;;;2.42;;
22652;SDS011;11493;43.344;26.226;2023-09-18T13:07:53;3.03;;;2.55;;
22652;SDS011;11493;43.344;26.226;2023-09-18T13:10:21;10.60;;;2.85;;
22652;SDS011;11493;43.344;26.226;2023-09-18T13:12:52;5.38;;;2.65;;
22652;SDS011;11493;43.344;26.226;2023-09-18T13:15:25;3.83;;;2.50;;
22652;SDS011;11493;43.344;26.226;2023-09-18T13:17:53;8.00;;;2.65;;
22652;SDS011;11493;43.344;26.226;2023-09-18T13:20:25;5.63;;;2.20;;
22652;SDS011;11493;43.344;26.226;2023-09-18T13:22:56;2.92;;;2.13;;
22652;SDS011;11493;43.344;26.226;2023-09-18T13:25:26;4.90;;;2.50;;
22652;SDS011;11493;43.344;26.226;2023-09-18T13:28:02;4.75;;;2.38;;
22652;SDS011;11493;43.344;26.226;2023-09-18T13:30:31;8.15;;;2.67;;
22652;SDS011;11493;43.344;26.226;2023-09-18T13:33:01;3.75;;;2.65;;
22652;SDS011;11493;43.344;26.226;2023-09-18T13:35:31;5.33;;;2.53;;
22652;SDS011;11493;43.344;26.226;2023-09-18T13:37:59;6.78;;;2.75;;
22652;SDS011;11493;43.344;26.226;2023-09-18T13:40:26;5.03;;;2.20;;
22652;SDS011;11493;43.344;26.226;2023-09-18T13:42:54;5.32;;;2.22;;
22652;SDS011;11493;43.344;26.226;2023-09-18T13:45:21;3.53;;;2.35;;
22652;SDS011;11493;43.344;26.226;2023-09-18T13:47:49;7.47;;;2.40;;
22652;SDS011;11493;43.344;26.226;2023-09-18T13:50:16;3.95;;;2.30;;
22652;SDS011;11493;43.344;26.226;2023-09-18T13:52:44;4.70;;;2.30;;
22652;SDS011;11493;43.344;26.226;2023-09-18T13:55:11;9.93;;;2.33;;
22652;SDS011;11493;43.344;26.226;2023-09-18T13:57:38;5.18;;;2.13;;
22652;SDS011;11493;43.344;26.226;2023-09-18T14:00:07;2.90;;;2.40;;
22652;SDS011;11493;43.344;26.226;2023-09-18T14:02:40;3.17;;;1.77;;
22652;SDS011;11493;43.344;26.226;2023-09-18T14:05:09;5.28;;;2.17;;
22652;SDS011;11493;43.344;26.226;2023-09-18T14:07:42;3.55;;;2.50;;
22652;SDS011;11493;43.344;26.226;2023-09-18T14:10:10;5.22;;;2.28;;
22652;SDS011;11493;43.344;26.226;2023-09-18T14:12:38;8.32;;;2.58;;
22652;SDS011;11493;43.344;26.226;2023-09-18T14:15:05;7.75;;;2.40;;
22652;SDS011;11493;43.344;26.226;2023-09-18T14:17:34;5.93;;;2.13;;
22652;SDS011;11493;43.344;26.226;2023-09-18T14:20:03;4.20;;;2.17;;
22652;SDS011;11493;43.344;26.226;2023-09-18T14:22:36;3.75;;;2.10;;
22652;SDS011;11493;43.344;26.226;2023-09-18T14:25:04;4.78;;;2.08;;
22652;SDS011;11493;43.344;26.226;2023-09-18T14:27:33;5.78;;;2.63;;
22652;SDS011;11493;43.344;26.226;2023-09-18T14:30:02;9.43;;;2.22;;
22652;SDS011;11493;43.344;26.226;2023-09-18T14:35:03;2.15;;;1.60;;
22652;SDS011;11493;43.344;26.226;2023-09-18T14:37:32;9.90;;;1.95;;
22652;SDS011;11493;43.344;26.226;2023-09-18T14:39:59;7.53;;;2.00;;
22652;SDS011;11493;43.344;26.226;2023-09-18T14:42:26;4.45;;;1.92;;
22652;SDS011;11493;43.344;26.226;2023-09-18T14:44:53;3.50;;;2.28;;
22652;SDS011;11493;43.344;26.226;2023-09-18T14:47:20;4.18;;;1.98;;
22652;SDS011;11493;43.344;26.226;2023-09-18T14:49:50;7.32;;;2.03;;
22652;SDS011;11493;43.344;26.226;2023-09-18T14:52:18;7.70;;;1.75;;
22652;SDS011;11493;43.344;26.226;2023-09-18T14:54:46;6.47;;;1.83;;
22652;SDS011;11493;43.344;26.226;2023-09-18T14:57:13;2.92;;;1.50;;
22652;SDS011;11493;43.344;26.226;2023-09-18T14:59:40;3.38;;;1.88;;
22652;SDS011;11493;43.344;26.226;2023-09-18T15:02:14;6.35;;;1.80;;